HEGN

Hurghada International Airport

Hurghada, Egypt
METAR HEGN 141000Z 36007KT 9999 FEW025 23/08 Q1020 NOSIG
Observed Flight Rules
Dec-14 @ 10:00 UTC (2 hours ago) Visual Flight Rules
Wind Visibility Clouds
360° at 7 knots 10,000+ meters
  • Few at 2,500' AGL
Temperatures Readings
Current 23°C / 73°F
Dewpoint 8°C / 46°F
Humidity 38%
Altimeter 30.12" Hg
Pressure 1020 hPa
Elevation 14
METAR HEGN 141000Z 36007KT 9999 FEW025 23/08 Q1020 NOSIG
Observed Flight Rules
Dec-14 @ 10:00 UTC
(2 hours ago)
VFR
Wind Visibility
360° at 7 knots 10,000+ meters
Clouds
  • Few at 2,500' AGL
Temperature Dewpoint
23°C / 73°F 8°C / 46°F
Humidity Altimeter Pressure
38% 30.12" Hg 1020 hPa